Time;durP1;ratioP1;P1;durP2;ratioP2;P2;SDS_P1;SDS_P2;PMS_P1;PMS_P2;Temp;Humidity;BMP_temperature;BMP_pressure;BME280_temperature;BME280_humidity;BME280_pressure;Samples;Min_cycle;Max_cycle;Signal;HPM_P1;HPM_P2
2023/04/26 00:00:23;;;;;;;16.03;6.00;;;;;;;40.79;34.67;100902.50;5087913;28;20416;-78
2023/04/26 00:02:49;;;;;;;11.63;5.13;;;;;;;40.68;34.55;100898.53;5093920;28;20460;-76
2023/04/26 00:05:17;;;;;;;12.60;6.50;;;;;;;40.58;33.76;100883.38;5103049;28;20468;-76
2023/04/26 00:07:43;;;;;;;14.70;5.10;;;;;;;40.54;33.92;100887.84;5091094;28;20424;-76
2023/04/26 00:10:10;;;;;;;23.83;7.00;;;;;;;40.57;33.91;100884.47;5094768;28;20927;-76
2023/04/26 00:12:36;;;;;;;12.10;5.17;;;;;;;40.73;34.48;100890.97;5094173;28;20543;-75
2023/04/26 00:15:06;;;;;;;12.93;4.50;;;;;;;40.74;34.88;100889.06;5094627;28;20416;-76
2023/04/26 00:17:32;;;;;;;14.30;6.77;;;;;;;40.87;34.62;100892.69;5093525;28;20524;-76
2023/04/26 00:19:58;;;;;;;16.57;6.50;;;;;;;40.88;34.26;100894.28;5113059;28;20424;-76
2023/04/26 00:22:24;;;;;;;14.87;6.30;;;;;;;40.83;34.65;100897.22;5110946;28;20801;-75
2023/04/26 00:24:50;;;;;;;13.50;7.30;;;;;;;40.80;35.29;100896.72;5111457;28;20935;-75
2023/04/26 00:27:16;;;;;;;17.17;6.20;;;;;;;40.81;34.40;100892.88;5093616;28;20793;-76
2023/04/26 00:29:42;;;;;;;11.07;5.27;;;;;;;40.86;33.76;100893.81;5080709;28;20437;-76
2023/04/26 00:32:08;;;;;;;12.80;5.17;;;;;;;40.91;33.85;100893.69;5111019;28;20459;-76
2023/04/26 00:34:36;;;;;;;9.73;4.23;;;;;;;40.99;33.02;100890.91;5092802;28;20428;-75
2023/04/26 00:37:03;;;;;;;13.13;4.40;;;;;;;41.01;33.11;100879.72;5111300;28;20416;-77
2023/04/26 00:39:30;;;;;;;10.27;4.83;;;;;;;41.05;33.25;100870.56;5079682;28;20940;-75
2023/04/26 00:41:56;;;;;;;12.87;5.20;;;;;;;41.05;33.58;100867.03;5091019;28;20469;-77
2023/04/26 00:44:23;;;;;;;12.50;5.13;;;;;;;41.12;33.62;100872.75;5090522;28;20417;-76
2023/04/26 00:46:51;;;;;;;14.20;3.97;;;;;;;41.19;33.15;100864.06;5073974;28;20428;-75
2023/04/26 00:49:19;;;;;;;12.63;4.77;;;;;;;41.22;34.18;100866.16;5090673;28;20424;-76
2023/04/26 00:51:46;;;;;;;13.13;5.20;;;;;;;41.24;34.23;100872.06;5074248;28;20421;-78
2023/04/26 00:54:13;;;;;;;10.27;5.27;;;;;;;41.25;34.35;100876.38;5090788;28;20423;-72
2023/04/26 00:56:40;;;;;;;13.03;5.30;;;;;;;41.32;34.45;100874.78;5088323;28;20985;-76
2023/04/26 00:59:07;;;;;;;18.47;4.63;;;;;;;41.34;34.51;100879.88;5077546;28;20417;-76
2023/04/26 01:01:34;;;;;;;13.37;5.50;;;;;;;41.36;34.89;100882.28;5084496;28;20423;-76
2023/04/26 01:04:01;;;;;;;22.57;5.90;;;;;;;41.37;34.89;100873.75;5077114;28;20853;-76
2023/04/26 01:06:33;;;;;;;18.23;5.13;;;;;;;41.41;34.87;100860.31;5105693;28;20427;-77
2023/04/26 01:09:03;;;;;;;18.53;5.33;;;;;;;41.42;34.90;100859.97;5087211;28;20467;-77
2023/04/26 01:11:31;;;;;;;19.17;7.17;;;;;;;41.39;35.27;100847.03;5092106;28;20421;-76
2023/04/26 01:13:57;;;;;;;15.17;5.50;;;;;;;41.43;35.46;100849.88;5088569;28;20459;-77
2023/04/26 01:16:23;;;;;;;11.87;4.40;;;;;;;41.42;35.06;100842.84;5093776;28;20416;-76
2023/04/26 01:18:53;;;;;;;16.23;6.73;;;;;;;41.31;34.99;100842.38;5091663;28;20424;-76
2023/04/26 01:21:23;;;;;;;12.07;5.73;;;;;;;41.29;35.19;100848.16;5073687;28;20460;-75
2023/04/26 01:23:50;;;;;;;13.73;5.03;;;;;;;41.43;35.20;100836.25;5108303;28;20477;-76
2023/04/26 01:26:16;;;;;;;15.73;5.70;;;;;;;41.37;35.20;100826.69;5093723;28;20434;-77
2023/04/26 01:28:42;;;;;;;14.03;5.17;;;;;;;41.37;35.11;100824.75;5093455;28;20803;-75
2023/04/26 01:31:08;;;;;;;14.73;4.73;;;;;;;41.39;35.30;100816.28;5111894;28;20415;-77
2023/04/26 01:33:34;;;;;;;11.30;4.93;;;;;;;41.21;35.47;100810.13;5093434;28;20444;-76
2023/04/26 01:36:00;;;;;;;15.00;7.13;;;;;;;41.15;35.49;100809.53;5093670;28;20440;-77
2023/04/26 01:38:26;;;;;;;11.00;5.03;;;;;;;41.11;35.53;100811.31;5109900;28;20484;-76
2023/04/26 01:40:52;;;;;;;14.20;6.43;;;;;;;41.20;35.70;100806.63;5097604;28;20942;-76
2023/04/26 01:43:19;;;;;;;12.30;5.80;;;;;;;41.20;35.59;100801.19;5115134;28;20177;-76
2023/04/26 01:45:49;;;;;;;12.27;6.27;;;;;;;41.20;35.75;100793.00;5097036;28;20182;-75
2023/04/26 01:48:15;;;;;;;12.13;5.67;;;;;;;41.22;35.63;100790.75;5101050;28;20411;-77
2023/04/26 01:50:41;;;;;;;16.03;7.03;;;;;;;41.21;35.60;100788.34;5096740;28;20483;-75
2023/04/26 01:53:07;;;;;;;15.60;6.00;;;;;;;41.22;35.88;100781.78;5113923;28;20491;-78
2023/04/26 01:55:33;;;;;;;19.30;6.80;;;;;;;41.17;35.80;100782.75;5113232;28;20201;-76
2023/04/26 01:57:59;;;;;;;15.13;6.40;;;;;;;41.21;35.87;100783.72;5115207;28;20189;-76
2023/04/26 02:00:27;;;;;;;16.13;6.63;;;;;;;40.98;36.40;100774.25;5096474;28;20416;-75
2023/04/26 02:02:56;;;;;;;18.20;7.17;;;;;;;41.00;36.69;100761.91;5115305;28;21053;-76
2023/04/26 02:05:25;;;;;;;15.47;6.57;;;;;;;41.09;36.60;100753.69;5086285;28;20427;-76
2023/04/26 02:07:51;;;;;;;19.40;7.20;;;;;;;41.00;36.23;100755.66;5076858;28;20428;-75
2023/04/26 02:10:17;;;;;;;14.70;5.80;;;;;;;41.10;35.98;100736.25;5088427;28;20416;-76
2023/04/26 02:12:43;;;;;;;12.80;5.90;;;;;;;40.76;36.84;100746.19;5114772;28;20205;-76
2023/04/26 02:15:09;;;;;;;16.13;7.07;;;;;;;40.92;36.55;100753.81;5113996;28;20434;-77
2023/04/26 02:17:36;;;;;;;16.10;7.83;;;;;;;40.94;36.56;100748.81;5096330;28;20420;-75
2023/04/26 02:20:03;;;;;;;18.33;8.00;;;;;;;40.75;37.23;100743.78;5115144;28;20777;-76
2023/04/26 02:22:30;;;;;;;17.40;8.33;;;;;;;40.71;36.67;100745.59;5089380;28;20425;-75
2023/04/26 02:24:56;;;;;;;16.30;6.77;;;;;;;40.84;36.13;100754.63;5089931;28;20466;-76
2023/04/26 02:27:21;;;;;;;18.13;7.70;;;;;;;40.92;36.50;100745.66;5093401;28;20421;-76
2023/04/26 02:29:47;;;;;;;14.10;5.73;;;;;;;40.80;36.61;100755.28;5089778;28;20489;-75
2023/04/26 02:32:14;;;;;;;14.53;6.40;;;;;;;40.76;36.54;100754.38;5083995;28;20688;-77
2023/04/26 02:34:40;;;;;;;13.83;5.97;;;;;;;40.87;35.99;100748.53;5081931;28;20421;-75
2023/04/26 02:37:06;;;;;;;12.03;5.10;;;;;;;40.95;35.80;100753.16;5105256;28;20462;-76
2023/04/26 02:39:32;;;;;;;13.73;6.10;;;;;;;40.62;36.40;100734.75;5096254;28;20540;-75
2023/04/26 02:41:58;;;;;;;11.63;4.47;;;;;;;40.68;37.08;100735.34;5093015;28;20416;-76
2023/04/26 02:44:24;;;;;;;9.57;4.90;;;;;;;40.75;36.80;100725.53;5095377;28;20554;-75
2023/04/26 02:46:50;;;;;;;12.10;6.40;;;;;;;40.68;36.86;100713.59;5088071;28;20417;-74
2023/04/26 02:49:16;;;;;;;12.67;4.70;;;;;;;40.77;36.36;100722.53;5091192;28;20432;-76
2023/04/26 02:51:42;;;;;;;12.53;5.40;;;;;;;40.65;36.13;100722.44;5096059;28;20951;-76
2023/04/26 02:54:08;;;;;;;14.23;4.50;;;;;;;40.53;36.17;100731.28;5114089;28;20176;-77
2023/04/26 02:56:34;;;;;;;15.83;4.70;;;;;;;40.32;36.72;100731.16;5095830;28;20530;-75
2023/04/26 02:59:00;;;;;;;10.60;4.60;;;;;;;40.41;36.41;100728.44;5102899;28;20186;-77
2023/04/26 03:01:26;;;;;;;25.27;5.93;;;;;;;40.40;36.68;100730.34;5094520;28;20419;-77
2023/04/26 03:03:53;;;;;;;15.00;5.70;;;;;;;40.45;36.62;100723.91;5113636;28;20455;-76
2023/04/26 03:06:19;;;;;;;14.00;4.37;;;;;;;40.46;36.74;100725.53;5095443;28;20495;-75
2023/04/26 03:08:45;;;;;;;17.90;4.47;;;;;;;40.14;37.29;100725.00;5083983;28;20432;-75
2023/04/26 03:11:11;;;;;;;12.40;5.70;;;;;;;40.44;36.74;100717.69;5094680;28;20423;-76
2023/04/26 03:13:37;;;;;;;16.90;5.57;;;;;;;40.36;36.65;100710.38;5090776;28;20632;-76
2023/04/26 03:16:03;;;;;;;12.07;4.80;;;;;;;40.49;36.89;100703.16;5087245;28;20424;-77
2023/04/26 03:18:29;;;;;;;9.60;4.93;;;;;;;40.36;37.13;100698.72;5112108;28;20800;-78
2023/04/26 03:20:55;;;;;;;10.70;4.30;;;;;;;40.23;37.32;100705.97;5095925;28;20939;-76
2023/04/26 03:23:24;;;;;;;9.83;3.50;;;;;;;40.52;36.32;100713.38;5095519;28;20416;-77
2023/04/26 03:25:50;;;;;;;10.87;4.10;;;;;;;40.57;36.33;100712.38;5113653;28;20432;-76
2023/04/26 03:28:16;;;;;;;9.10;3.70;;;;;;;40.53;35.74;100714.97;5095408;28;20453;-76
2023/04/26 03:30:42;;;;;;;16.80;4.20;;;;;;;40.54;35.39;100713.84;5095421;28;20518;-76
2023/04/26 03:33:08;;;;;;;10.40;3.70;;;;;;;40.47;35.28;100714.34;5065320;28;21069;-77
2023/04/26 03:35:34;;;;;;;16.33;4.87;;;;;;;40.63;35.62;100708.34;5108896;28;20420;-76
2023/04/26 03:38:00;;;;;;;8.77;3.90;;;;;;;40.78;35.04;100692.25;5088166;28;20206;-77
2023/04/26 03:40:26;;;;;;;11.87;5.10;;;;;;;40.51;35.30;100687.28;5075151;28;20810;-77
2023/04/26 03:42:52;;;;;;;19.70;6.00;;;;;;;40.62;35.10;100685.00;5093352;28;20455;-76
2023/04/26 03:45:18;;;;;;;10.53;4.50;;;;;;;40.67;35.00;100676.66;5089172;28;20416;-76
2023/04/26 03:47:44;;;;;;;12.50;4.30;;;;;;;40.66;35.42;100675.06;5090534;28;20182;-77
2023/04/26 03:50:10;;;;;;;11.73;3.80;;;;;;;40.70;34.95;100670.53;5104719;28;20420;-77
2023/04/26 03:52:36;;;;;;;13.03;3.97;;;;;;;40.63;34.29;100678.44;5089768;28;20582;-76
2023/04/26 03:55:02;;;;;;;18.33;5.20;;;;;;;40.60;34.73;100676.38;5094882;28;20817;-77
2023/04/26 03:57:28;;;;;;;13.77;5.03;;;;;;;40.86;34.28;100662.63;5094671;28;20412;-76
2023/04/26 03:59:55;;;;;;;11.20;5.17;;;;;;;40.56;34.46;100665.38;5099588;28;20417;-76
2023/04/26 04:02:21;;;;;;;10.73;5.93;;;;;;;40.96;34.59;100675.84;5073312;28;20695;-75
2023/04/26 04:04:46;;;;;;;14.27;5.37;;;;;;;40.75;34.96;100673.06;5060078;28;20423;-76
2023/04/26 04:07:12;;;;;;;16.43;4.67;;;;;;;40.69;35.40;100668.97;5067442;28;20196;-76
2023/04/26 04:09:38;;;;;;;19.73;6.53;;;;;;;40.79;35.31;100663.16;5057318;28;20421;-76
2023/04/26 04:12:04;;;;;;;9.83;4.60;;;;;;;40.83;35.50;100657.84;5071133;28;20191;-76
2023/04/26 04:14:30;;;;;;;9.20;5.00;;;;;;;40.23;37.03;100654.34;5065585;28;20293;-76
2023/04/26 04:16:58;;;;;;;10.93;5.03;;;;;;;40.49;37.32;100644.13;5052713;28;20414;-77
2023/04/26 04:19:24;;;;;;;11.43;5.63;;;;;;;40.58;37.20;100649.53;5051239;28;20418;-76
2023/04/26 04:21:50;;;;;;;12.70;5.27;;;;;;;40.72;37.00;100652.78;5064057;28;20965;-75
2023/04/26 04:24:16;;;;;;;17.23;5.53;;;;;;;40.76;37.11;100659.16;5051142;28;20414;-76
2023/04/26 04:26:42;;;;;;;11.83;5.00;;;;;;;40.37;37.39;100664.97;5052923;28;20433;-75
2023/04/26 04:29:08;;;;;;;11.90;5.20;;;;;;;40.65;37.48;100659.88;5063489;28;20191;-76
2023/04/26 04:31:38;;;;;;;16.53;5.27;;;;;;;40.42;37.65;100659.34;5050903;28;20422;-76
2023/04/26 04:34:04;;;;;;;11.13;4.67;;;;;;;40.69;37.47;100655.38;5052297;28;20462;-77
2023/04/26 04:36:31;;;;;;;16.83;6.53;;;;;;;39.87;39.06;100652.84;5050812;28;20881;-76
2023/04/26 04:38:57;;;;;;;14.23;5.90;;;;;;;40.18;38.35;100647.16;5061158;28;20507;-76
2023/04/26 04:41:23;;;;;;;14.00;7.03;;;;;;;40.18;38.43;100647.16;5068128;28;20463;-76
2023/04/26 04:43:48;;;;;;;17.27;6.27;;;;;;;40.45;37.71;100658.69;5052161;28;20267;-76
2023/04/26 04:46:14;;;;;;;15.17;4.93;;;;;;;40.43;38.11;100655.50;5063691;28;20663;-76
2023/04/26 04:48:43;;;;;;;12.80;6.07;;;;;;;40.08;38.69;100661.09;5050947;28;20237;-78
2023/04/26 04:51:09;;;;;;;14.30;6.53;;;;;;;40.08;38.91;100671.16;5051157;28;20229;-76
2023/04/26 04:53:35;;;;;;;19.43;8.50;;;;;;;40.19;38.82;100688.69;5057502;28;20454;-76
2023/04/26 04:56:01;;;;;;;20.43;10.67;;;;;;;39.96;39.00;100693.53;5051229;28;20655;-76
2023/04/26 04:58:27;;;;;;;23.60;9.93;;;;;;;40.06;38.80;100697.88;5064077;28;20455;-75
2023/04/26 05:00:54;;;;;;;19.03;9.20;;;;;;;40.04;38.35;100692.75;5070389;28;20413;-76
2023/04/26 05:03:20;;;;;;;12.73;7.57;;;;;;;40.26;38.14;100694.44;5063163;28;20462;-76
2023/04/26 05:05:46;;;;;;;12.93;6.73;;;;;;;40.37;37.88;100698.38;5071698;28;20532;-76
2023/04/26 05:08:12;;;;;;;15.57;7.57;;;;;;;40.54;37.48;100711.13;5071607;28;20501;-76
2023/04/26 05:10:38;;;;;;;20.17;7.93;;;;;;;40.64;37.13;100716.19;5070059;28;20187;-75
2023/04/26 05:13:04;;;;;;;14.00;8.20;;;;;;;40.67;37.39;100722.88;5071606;28;20489;-77
2023/04/26 05:15:30;;;;;;;20.53;8.37;;;;;;;40.54;37.43;100724.72;5073204;28;20966;-75
2023/04/26 05:17:58;;;;;;;21.67;9.00;;;;;;;40.45;37.52;100729.34;5076007;28;20417;-76
2023/04/26 05:20:24;;;;;;;18.73;8.63;;;;;;;40.47;37.27;100721.69;5074092;28;20964;-76
2023/04/26 05:22:50;;;;;;;18.37;9.13;;;;;;;40.11;37.75;100722.94;5074468;28;20418;-76
2023/04/26 05:25:16;;;;;;;18.07;10.47;;;;;;;40.00;37.81;100725.16;5075290;28;20471;-77
2023/04/26 05:27:44;;;;;;;15.73;9.43;;;;;;;40.27;37.53;100734.09;5073855;28;20418;-76
2023/04/26 05:30:11;;;;;;;16.37;9.90;;;;;;;40.31;37.50;100740.44;5073799;28;20992;-76
2023/04/26 05:32:36;;;;;;;14.70;8.73;;;;;;;40.14;37.50;100751.38;5072934;28;20595;-75
2023/04/26 05:35:03;;;;;;;14.53;7.63;;;;;;;39.92;38.33;100768.66;5071764;28;20513;-77
2023/04/26 05:37:30;;;;;;;12.40;7.97;;;;;;;40.13;37.93;100766.09;5063863;28;20638;-75
2023/04/26 05:39:56;;;;;;;16.00;8.60;;;;;;;40.14;37.54;100765.75;5066907;28;20429;-77
2023/04/26 05:42:22;;;;;;;22.17;8.33;;;;;;;40.40;37.21;100771.13;5073896;28;20430;-76
2023/04/26 05:44:48;;;;;;;16.93;7.73;;;;;;;40.34;36.92;100774.34;5072871;28;20487;-76
2023/04/26 05:47:14;;;;;;;14.20;7.30;;;;;;;40.12;37.35;100773.44;5068935;28;20171;-75
2023/04/26 05:49:40;;;;;;;20.53;8.20;;;;;;;40.01;37.45;100777.59;5059406;28;20965;-76
2023/04/26 05:52:06;;;;;;;19.30;7.60;;;;;;;39.78;38.12;100778.88;5065261;28;20441;-78
2023/04/26 05:54:31;;;;;;;18.07;9.63;;;;;;;39.95;37.76;100789.75;5070239;28;20602;-76
2023/04/26 05:56:57;;;;;;;17.70;9.47;;;;;;;39.82;38.14;100788.78;5066329;28;20203;-77
2023/04/26 05:59:23;;;;;;;17.70;10.27;;;;;;;40.02;38.12;100793.59;5063734;28;20417;-76
2023/04/26 06:01:49;;;;;;;20.50;8.90;;;;;;;39.76;38.39;100799.03;5071675;28;20183;-76
2023/04/26 06:04:15;;;;;;;27.97;9.67;;;;;;;40.10;37.76;100797.44;5066497;28;20473;-75
2023/04/26 06:06:41;;;;;;;20.53;9.37;;;;;;;39.58;38.53;100805.53;5067673;28;20421;-77
2023/04/26 06:09:07;;;;;;;17.90;9.67;;;;;;;39.80;37.90;100804.63;5065036;28;20733;-77
2023/04/26 06:11:33;;;;;;;13.30;8.20;;;;;;;40.09;37.56;100812.13;5085127;28;20496;-77
2023/04/26 06:13:59;;;;;;;22.23;10.00;;;;;;;39.77;38.45;100813.41;5064483;28;20203;-77
2023/04/26 06:16:25;;;;;;;16.80;9.17;;;;;;;39.71;38.58;100811.97;5067646;28;20547;-76
2023/04/26 06:18:51;;;;;;;16.70;8.90;;;;;;;39.97;37.98;100807.34;5070631;28;20446;-77
2023/04/26 06:21:17;;;;;;;23.10;12.23;;;;;;;40.08;37.72;100810.50;5062395;28;20184;-77
2023/04/26 06:23:43;;;;;;;21.07;9.90;;;;;;;40.12;37.76;100806.03;5072844;28;20184;-75
2023/04/26 06:26:09;;;;;;;22.47;10.43;;;;;;;39.93;38.16;100828.09;5073884;28;20190;-77
2023/04/26 06:28:35;;;;;;;22.03;8.30;;;;;;;39.89;38.00;100831.75;5059252;28;20660;-76
2023/04/26 06:31:00;;;;;;;20.80;10.40;;;;;;;40.02;38.27;100825.34;5056436;28;20476;-76
2023/04/26 06:33:26;;;;;;;24.43;13.20;;;;;;;39.97;38.42;100828.25;5068918;28;20458;-77
2023/04/26 06:35:52;;;;;;;18.97;11.90;;;;;;;39.82;38.41;100831.47;5065694;28;20266;-76
2023/04/26 06:38:18;;;;;;;19.50;8.33;;;;;;;39.90;38.38;100833.34;5058689;28;20176;-77
2023/04/26 06:40:44;;;;;;;20.87;11.67;;;;;;;39.71;38.58;100847.25;5057014;28;20266;-77
2023/04/26 06:43:10;;;;;;;20.83;10.30;;;;;;;39.97;38.83;100845.34;5072340;28;20497;-77
2023/04/26 06:45:36;;;;;;;19.63;9.27;;;;;;;39.97;38.71;100850.78;5071310;28;20187;-77
2023/04/26 06:48:03;;;;;;;20.60;9.40;;;;;;;40.04;38.05;100847.63;5072063;28;20179;-77
2023/04/26 06:50:29;;;;;;;15.30;8.17;;;;;;;39.64;39.39;100855.88;5071615;28;20188;-76
2023/04/26 06:52:55;;;;;;;19.63;9.10;;;;;;;39.81;38.69;100854.31;5069343;28;20458;-77
2023/04/26 06:55:21;;;;;;;27.13;9.07;;;;;;;39.96;38.98;100854.63;5066658;28;20446;-75
2023/04/26 06:57:48;;;;;;;14.60;8.30;;;;;;;39.84;39.20;100854.47;5072478;28;20771;-76
2023/04/26 07:00:14;;;;;;;13.43;8.63;;;;;;;39.84;38.89;100853.66;5071873;28;20417;-77
2023/04/26 07:02:40;;;;;;;20.63;9.20;;;;;;;39.62;39.54;100862.75;5069811;28;21014;-75
2023/04/26 07:05:07;;;;;;;23.47;10.83;;;;;;;39.89;39.17;100856.22;5067389;28;20418;-76
2023/04/26 07:07:33;;;;;;;17.90;8.20;;;;;;;40.03;39.12;100862.28;5071904;28;20441;-76
2023/04/26 07:09:59;;;;;;;15.67;9.93;;;;;;;39.99;38.83;100858.63;5073659;28;20929;-76
2023/04/26 07:12:25;;;;;;;17.40;8.87;;;;;;;39.65;39.76;100875.69;5071644;28;20893;-76
2023/04/26 07:14:51;;;;;;;19.20;8.10;;;;;;;40.08;39.22;100866.78;5071974;28;20183;-76
2023/04/26 07:17:17;;;;;;;19.90;9.03;;;;;;;40.17;38.83;100881.97;5069991;28;20433;-75
2023/04/26 07:19:42;;;;;;;14.73;8.47;;;;;;;40.29;38.48;100876.66;5053378;28;20801;-75
2023/04/26 07:22:09;;;;;;;19.70;9.27;;;;;;;40.44;38.47;100877.28;5070899;28;20206;-77
2023/04/26 07:24:35;;;;;;;17.83;8.20;;;;;;;40.23;38.98;100883.41;5070636;28;20786;-78
2023/04/26 07:27:02;;;;;;;16.40;7.53;;;;;;;40.24;38.87;100886.91;5070834;28;20432;-77
2023/04/26 07:29:28;;;;;;;16.37;8.73;;;;;;;40.36;38.86;100895.22;5072163;28;20172;-79
2023/04/26 07:31:55;;;;;;;17.67;9.10;;;;;;;40.36;39.02;100891.69;5069823;28;20438;-80
2023/04/26 07:34:21;;;;;;;23.03;8.03;;;;;;;40.56;38.48;100888.31;5062321;28;20418;-78
2023/04/26 07:36:47;;;;;;;16.23;8.00;;;;;;;40.68;38.67;100901.25;5071954;28;20436;-78
2023/04/26 07:39:14;;;;;;;21.90;11.50;;;;;;;40.70;38.58;100904.41;5071367;28;20442;-78
2023/04/26 07:41:40;;;;;;;18.97;9.07;;;;;;;40.62;38.64;100905.25;5069710;28;20183;-80
2023/04/26 07:44:06;;;;;;;28.70;11.80;;;;;;;40.61;39.21;100900.94;5071338;28;20474;-82
2023/04/26 07:46:33;;;;;;;25.63;10.57;;;;;;;40.65;39.01;100912.78;5071095;28;20421;-82
2023/04/26 07:49:00;;;;;;;27.63;9.90;;;;;;;40.75;39.00;100906.97;5071200;28;20516;-75
2023/04/26 07:51:26;;;;;;;16.40;7.60;;;;;;;40.46;39.45;100913.13;5072743;28;20468;-77
2023/04/26 07:53:54;;;;;;;21.83;8.10;;;;;;;40.44;39.46;100921.56;5054251;28;20462;-80
2023/04/26 07:56:22;;;;;;;16.83;7.90;;;;;;;40.64;39.30;100916.59;5087664;28;20480;-79
2023/04/26 07:58:49;;;;;;;22.80;10.30;;;;;;;40.66;38.90;100912.44;5071726;28;20516;-82
2023/04/26 08:01:15;;;;;;;14.87;7.43;;;;;;;40.58;39.02;100924.16;5065574;28;20419;-79
2023/04/26 08:03:41;;;;;;;27.37;8.50;;;;;;;40.62;39.29;100914.22;5091808;28;20459;-79
2023/04/26 08:06:07;;;;;;;20.43;8.57;;;;;;;40.61;39.18;100930.84;5091912;28;20424;-82
2023/04/26 08:08:39;;;;;;;21.33;10.03;;;;;;;40.60;39.23;100923.81;5113212;28;20416;-78
2023/04/26 08:11:09;;;;;;;19.03;8.27;;;;;;;40.68;39.17;100923.78;5111824;28;20966;-78
2023/04/26 08:13:35;;;;;;;18.83;9.00;;;;;;;40.34;39.68;100919.19;5111888;28;20460;-80
2023/04/26 08:16:01;;;;;;;32.83;9.50;;;;;;;40.72;38.98;100924.75;5111357;28;20943;-80
2023/04/26 08:18:27;;;;;;;24.97;10.63;;;;;;;40.85;38.82;100922.94;5094803;28;20432;-78
2023/04/26 08:20:56;;;;;;;22.50;11.10;;;;;;;40.89;38.84;100917.66;5111708;28;20411;-78
2023/04/26 08:23:22;;;;;;;23.60;12.20;;;;;;;40.85;39.37;100922.16;5094698;28;20423;-79
2023/04/26 08:25:48;;;;;;;19.87;11.17;;;;;;;41.02;38.83;100924.84;5109577;28;20423;-77
2023/04/26 08:28:15;;;;;;;17.07;10.97;;;;;;;40.97;39.19;100914.13;5094358;28;20182;-80
2023/04/26 08:30:42;;;;;;;19.10;12.40;;;;;;;40.84;39.20;100915.91;5094604;28;20880;-78
2023/04/26 08:33:09;;;;;;;25.47;11.37;;;;;;;40.92;39.54;100917.84;5100900;28;20451;-78
2023/04/26 08:35:35;;;;;;;17.33;9.63;;;;;;;40.74;39.55;100908.09;5093399;28;20408;-80
2023/04/26 08:38:00;;;;;;;23.47;9.67;;;;;;;41.00;39.07;100919.72;5097973;28;20482;-78
2023/04/26 08:40:26;;;;;;;28.57;10.03;;;;;;;40.86;39.38;100929.97;5110204;28;20468;-78
2023/04/26 08:42:52;;;;;;;22.03;11.67;;;;;;;40.96;39.41;100939.75;5111015;28;20975;-79
2023/04/26 08:45:22;;;;;;;21.67;13.10;;;;;;;40.94;39.32;100953.66;5112455;28;20947;-78
2023/04/26 08:47:55;;;;;;;29.97;9.07;;;;;;;41.11;39.03;100954.72;5102884;28;20983;-78
2023/04/26 08:50:23;;;;;;;26.20;11.63;;;;;;;41.14;38.49;100957.63;5090323;28;21014;-78
2023/04/26 08:52:51;;;;;;;14.10;6.47;;;;;;;41.09;38.09;100949.63;5093936;28;20542;-80
2023/04/26 08:55:21;;;;;;;17.87;5.83;;;;;;;41.14;37.95;100956.81;5093946;28;20438;-78
2023/04/26 08:57:48;;;;;;;10.83;4.20;;;;;;;41.05;38.04;100948.66;5093947;28;20809;-80
2023/04/26 09:00:16;;;;;;;11.80;5.87;;;;;;;41.01;38.00;100945.03;5094032;28;20431;-81
2023/04/26 09:02:52;;;;;;;19.53;7.50;;;;;;;41.18;37.71;100958.53;5091819;28;20888;-79
2023/04/26 09:05:26;;;;;;;22.90;5.80;;;;;;;41.18;37.29;100946.84;5066155;28;20449;-80
2023/04/26 09:08:05;;;;;;;20.60;6.63;;;;;;;41.12;37.23;100946.25;5070153;28;20516;-78
2023/04/26 09:10:31;;;;;;;15.47;5.70;;;;;;;41.31;37.13;100941.22;5071063;28;20933;-79
2023/04/26 09:12:57;;;;;;;15.60;6.70;;;;;;;41.38;36.95;100929.03;5086304;28;20796;-78
2023/04/26 09:15:25;;;;;;;13.87;4.73;;;;;;;41.28;36.87;100930.97;5070288;28;20933;-78
2023/04/26 09:17:51;;;;;;;13.67;5.50;;;;;;;41.40;36.36;100937.66;5070337;28;20444;-78
2023/04/26 09:20:27;;;;;;;13.57;7.03;;;;;;;41.46;36.08;100939.88;5070330;28;20475;-77
2023/04/26 09:23:02;;;;;;;14.33;6.03;;;;;;;41.50;35.78;100937.31;5070232;28;20428;-79
2023/04/26 09:25:30;;;;;;;18.97;7.03;;;;;;;41.52;36.22;100944.00;5070264;28;20948;-78
2023/04/26 09:27:57;;;;;;;15.37;7.80;;;;;;;41.46;36.57;100939.06;5067962;28;20425;-78
2023/04/26 09:30:24;;;;;;;13.03;7.27;;;;;;;41.67;36.66;100930.94;5069994;28;20691;-84
2023/04/26 09:32:56;;;;;;;18.23;7.87;;;;;;;41.58;36.56;100928.28;5086395;28;20593;-78
2023/04/26 09:35:25;;;;;;;30.97;13.53;;;;;;;41.44;36.93;100928.53;5071038;28;20444;-77
2023/04/26 09:38:00;;;;;;;20.80;9.10;;;;;;;41.29;37.86;100921.66;5075554;28;20455;-77
2023/04/26 09:40:29;;;;;;;14.23;9.00;;;;;;;41.30;37.39;100912.38;5068813;28;20988;-80
2023/04/26 09:43:00;;;;;;;21.83;10.47;;;;;;;41.38;37.80;100905.34;5069566;28;20539;-77
2023/04/26 09:45:27;;;;;;;23.77;8.50;;;;;;;41.49;37.69;100903.00;5079118;28;20511;-77
2023/04/26 09:47:54;;;;;;;23.77;11.27;;;;;;;41.53;37.69;100906.66;5065550;28;20796;-79
2023/04/26 09:50:28;;;;;;;28.10;13.87;;;;;;;41.51;37.69;100911.66;5069837;28;20426;-78
2023/04/26 09:52:55;;;;;;;22.70;11.80;;;;;;;41.60;37.76;100912.38;5086819;28;20464;-79
2023/04/26 09:55:31;;;;;;;25.87;8.20;;;;;;;41.48;37.49;100909.59;5062217;28;20953;-78
2023/04/26 09:57:59;;;;;;;27.60;8.17;;;;;;;41.42;36.65;100908.19;5069872;28;20422;-78
2023/04/26 10:00:29;;;;;;;21.20;7.73;;;;;;;41.33;37.23;100910.97;5088161;28;20840;-80
2023/04/26 10:02:56;;;;;;;17.90;6.13;;;;;;;41.45;37.33;100908.31;5072292;28;20813;-81
2023/04/26 10:05:22;;;;;;;19.50;6.43;;;;;;;41.60;37.07;100910.47;5105672;28;20452;-78
2023/04/26 10:07:50;;;;;;;29.60;7.57;;;;;;;41.24;37.83;100902.00;5110895;28;20443;-80
2023/04/26 10:10:17;;;;;;;16.60;6.20;;;;;;;41.66;37.31;100911.06;5112510;28;20499;-79
2023/04/26 10:12:43;;;;;;;22.83;7.17;;;;;;;41.39;37.92;100903.41;5096909;28;20516;-77
2023/04/26 10:15:11;;;;;;;18.70;6.60;;;;;;;41.79;37.47;100906.50;5097217;28;20420;-79
2023/04/26 10:17:40;;;;;;;11.97;6.30;;;;;;;41.76;37.24;100908.00;5097084;28;20416;-78
2023/04/26 10:20:12;;;;;;;15.10;5.70;;;;;;;41.66;37.29;100902.09;5097069;28;20412;-79
2023/04/26 10:22:49;;;;;;;20.90;7.40;;;;;;;41.56;37.72;100895.13;5113469;28;20443;-78
2023/04/26 10:25:15;;;;;;;21.30;6.50;;;;;;;41.76;37.38;100899.81;5096766;28;20527;-77
2023/04/26 10:27:44;;;;;;;19.53;7.03;;;;;;;41.55;37.80;100907.13;5097098;28;20523;-78
2023/04/26 10:30:11;;;;;;;12.53;6.47;;;;;;;41.80;37.86;100908.91;5096168;28;20424;-80
2023/04/26 10:32:52;;;;;;;10.33;4.73;;;;;;;41.69;37.32;100907.69;5096627;28;20456;-79
2023/04/26 10:35:18;;;;;;;11.33;4.73;;;;;;;41.80;37.03;100908.91;5096499;28;20408;-80
2023/04/26 10:38:02;;;;;;;14.77;5.50;;;;;;;41.73;37.00;100911.31;5096581;28;20448;-79
2023/04/26 10:40:31;;;;;;;13.10;5.73;;;;;;;41.87;36.32;100913.84;5114130;28;20400;-79
2023/04/26 10:43:09;;;;;;;11.53;3.80;;;;;;;41.84;36.84;100906.31;5096748;28;20426;-79
2023/04/26 10:45:35;;;;;;;12.40;4.27;;;;;;;42.10;36.63;100919.72;5113544;28;20439;-80
2023/04/26 10:48:17;;;;;;;16.50;5.30;;;;;;;41.71;36.38;100899.97;5095982;28;20426;-76
2023/04/26 10:51:04;;;;;;;16.93;5.97;;;;;;;41.74;36.37;100904.81;5096593;28;20961;-78
2023/04/26 10:53:31;;;;;;;22.90;5.90;;;;;;;41.85;36.32;100897.81;5109489;28;20480;-77
2023/04/26 10:55:57;;;;;;;16.37;5.50;;;;;;;41.80;36.56;100897.22;5090947;28;20936;-77
2023/04/26 10:58:26;;;;;;;22.50;4.60;;;;;;;42.05;35.96;100896.22;5096034;28;20934;-77
2023/04/26 11:01:16;;;;;;;13.33;4.40;;;;;;;41.69;36.16;100885.09;5096369;28;20416;-78
2023/04/26 11:03:44;;;;;;;12.60;5.00;;;;;;;41.69;36.26;100893.28;5092336;28;20495;-77
2023/04/26 11:06:14;;;;;;;10.70;4.97;;;;;;;41.91;35.51;100897.59;5095947;28;20428;-78
2023/04/26 11:08:40;;;;;;;14.00;4.80;;;;;;;41.97;35.25;100888.91;5102270;28;20417;-77
2023/04/26 11:11:12;;;;;;;15.00;5.40;;;;;;;42.06;35.76;100894.28;5111741;28;20411;-78
2023/04/26 11:13:42;;;;;;;13.50;4.23;;;;;;;41.56;36.22;100879.59;5112964;28;20485;-79
2023/04/26 11:16:10;;;;;;;15.00;4.80;;;;;;;41.74;35.81;100888.47;5112876;28;20414;-80